Time;durP1;ratioP1;P1;durP2;ratioP2;P2;SDS_P1;SDS_P2;PMS_P1;PMS_P2;Temp;Humidity;BMP_temperature;BMP_pressure;BME280_temperature;BME280_humidity;BME280_pressure;Samples;Min_cycle;Max_cycle;Signal;HPM_P1;HPM_P2
2022/07/28 00:02:03;;;;;;;6.70;2.30;;;;;;;;;;5036672;28;20423;-73
2022/07/28 00:04:29;;;;;;;4.30;2.40;;;;;;;;;;5018943;28;20429;-74
2022/07/28 00:06:55;;;;;;;2.70;2.30;;;;;;;;;;5036588;28;20425;-74
2022/07/28 00:09:21;;;;;;;3.23;2.00;;;;;;;;;;5036561;28;20418;-74
2022/07/28 00:11:47;;;;;;;6.03;2.30;;;;;;;;;;5047949;28;20424;-74
2022/07/28 00:14:13;;;;;;;7.27;2.80;;;;;;;;;;5056423;28;20409;-74
2022/07/28 00:16:39;;;;;;;2.47;2.30;;;;;;;;;;5056287;28;20451;-74
2022/07/28 00:19:05;;;;;;;2.23;1.83;;;;;;;;;;5056151;28;20488;-74
2022/07/28 00:21:31;;;;;;;5.13;2.00;;;;;;;;;;5056302;28;20437;-74
2022/07/28 00:23:57;;;;;;;2.30;2.10;;;;;;;;;;5038353;28;20469;-73
2022/07/28 00:26:23;;;;;;;2.97;2.10;;;;;;;;;;5038247;28;20434;-74
2022/07/28 00:28:49;;;;;;;2.57;2.43;;;;;;;;;;5056143;28;20794;-75
2022/07/28 00:31:15;;;;;;;3.47;2.50;;;;;;;;;;5038223;28;20426;-73
2022/07/28 00:33:41;;;;;;;5.40;2.40;;;;;;;;;;5038206;28;20429;-74
2022/07/28 00:36:11;;;;;;;3.23;2.47;;;;;;;;;;5056218;28;20416;-73
2022/07/28 00:38:37;;;;;;;2.77;2.53;;;;;;;;;;5055929;28;20471;-74
2022/07/28 00:41:10;;;;;;;2.27;2.17;;;;;;;;;;5055824;28;20475;-73
2022/07/28 00:43:46;;;;;;;2.90;2.00;;;;;;;;;;5037795;28;20849;-73
2022/07/28 00:46:13;;;;;;;2.77;2.20;;;;;;;;;;5055763;28;20448;-74
2022/07/28 00:48:42;;;;;;;6.23;2.40;;;;;;;;;;5023453;28;20467;-73
2022/07/28 00:51:08;;;;;;;2.60;2.37;;;;;;;;;;5035751;28;20415;-73
2022/07/28 00:53:35;;;;;;;6.93;2.70;;;;;;;;;;5035678;28;20397;-74
2022/07/28 00:56:01;;;;;;;3.17;2.03;;;;;;;;;;5035683;28;20441;-74
2022/07/28 00:58:27;;;;;;;4.30;3.00;;;;;;;;;;5035579;28;20415;-74
2022/07/28 01:00:53;;;;;;;2.37;2.17;;;;;;;;;;5035469;28;20479;-74
2022/07/28 01:03:19;;;;;;;2.70;2.43;;;;;;;;;;5035531;28;20408;-74
2022/07/28 01:05:52;;;;;;;1.60;1.50;;;;;;;;;;5035514;28;20488;-74
2022/07/28 01:08:23;;;;;;;2.13;1.83;;;;;;;;;;5035526;28;20400;-75
2022/07/28 01:11:01;;;;;;;3.53;1.90;;;;;;;;;;5035457;28;20412;-73
2022/07/28 01:13:49;;;;;;;7.40;2.20;;;;;;;;;;5035348;28;20426;-73
2022/07/28 01:16:15;;;;;;;7.67;1.90;;;;;;;;;;5035303;28;20398;-73
2022/07/28 01:18:42;;;;;;;2.40;1.83;;;;;;;;;;5035110;28;20472;-72
2022/07/28 01:21:11;;;;;;;1.90;1.90;;;;;;;;;;5035174;28;20467;-73
2022/07/28 01:23:51;;;;;;;4.70;2.20;;;;;;;;;;5035204;28;20457;-74
2022/07/28 01:26:17;;;;;;;5.80;2.10;;;;;;;;;;5035031;28;20473;-73
2022/07/28 01:28:46;;;;;;;2.60;2.40;;;;;;;;;;5017302;28;20423;-72
2022/07/28 01:31:15;;;;;;;3.00;1.87;;;;;;;;;;5034976;28;20415;-73
2022/07/28 01:33:44;;;;;;;9.93;2.37;;;;;;;;;;5017312;28;20432;-72
2022/07/28 01:36:12;;;;;;;2.70;2.50;;;;;;;;;;5034924;28;20409;-74
2022/07/28 01:38:38;;;;;;;2.00;1.80;;;;;;;;;;5034948;28;20407;-74
2022/07/28 01:41:09;;;;;;;2.87;2.00;;;;;;;;;;5034710;28;20529;-73
2022/07/28 01:43:37;;;;;;;3.67;2.30;;;;;;;;;;5016957;28;20525;-73
2022/07/28 01:46:03;;;;;;;3.37;2.00;;;;;;;;;;5034774;28;20478;-73
2022/07/28 01:48:30;;;;;;;2.33;2.13;;;;;;;;;;5021774;28;20424;-72
2022/07/28 01:50:57;;;;;;;5.50;1.90;;;;;;;;;;5015001;28;20469;-73
2022/07/28 01:53:24;;;;;;;2.00;1.90;;;;;;;;;;5014835;28;20424;-75
2022/07/28 01:55:50;;;;;;;3.57;2.07;;;;;;;;;;5014129;28;20416;-73
2022/07/28 01:58:18;;;;;;;4.30;2.27;;;;;;;;;;5014730;28;20444;-73
2022/07/28 02:00:46;;;;;;;2.20;1.57;;;;;;;;;;5014699;28;20555;-71
2022/07/28 02:03:13;;;;;;;6.53;1.90;;;;;;;;;;5014836;28;20402;-73
2022/07/28 02:05:40;;;;;;;1.70;1.60;;;;;;;;;;5014741;28;20461;-72
2022/07/28 02:08:07;;;;;;;5.10;2.23;;;;;;;;;;5014514;28;20476;-74
2022/07/28 02:10:34;;;;;;;2.20;1.50;;;;;;;;;;4996912;28;20806;-72
2022/07/28 02:13:01;;;;;;;1.70;1.50;;;;;;;;;;4997010;28;20426;-73
2022/07/28 02:15:29;;;;;;;2.33;2.10;;;;;;;;;;5014529;28;20437;-72
2022/07/28 02:17:55;;;;;;;4.53;2.03;;;;;;;;;;5014508;28;20406;-74
2022/07/28 02:20:21;;;;;;;1.80;1.40;;;;;;;;;;5014258;28;20493;-74
2022/07/28 02:22:48;;;;;;;2.50;2.23;;;;;;;;;;5014528;28;20398;-72
2022/07/28 02:25:14;;;;;;;2.17;1.80;;;;;;;;;;5014420;28;20416;-73
2022/07/28 02:27:43;;;;;;;2.47;2.27;;;;;;;;;;5014357;28;20434;-72
2022/07/28 02:30:10;;;;;;;4.30;1.90;;;;;;;;;;5014904;28;20933;-73
2022/07/28 02:32:51;;;;;;;2.10;1.80;;;;;;;;;;5014769;28;20469;-72
2022/07/28 02:35:25;;;;;;;1.90;1.50;;;;;;;;;;5014705;28;20434;-72
2022/07/28 02:37:58;;;;;;;3.13;1.63;;;;;;;;;;5014385;28;20427;-72
2022/07/28 02:40:25;;;;;;;1.60;1.60;;;;;;;;;;5014439;28;20480;-73
2022/07/28 02:42:53;;;;;;;2.43;1.70;;;;;;;;;;5014373;28;20905;-72
2022/07/28 02:45:21;;;;;;;2.03;1.47;;;;;;;;;;5014300;28;20419;-72
2022/07/28 02:47:51;;;;;;;7.97;1.80;;;;;;;;;;5021481;28;20793;-73
2022/07/28 02:50:19;;;;;;;4.07;1.73;;;;;;;;;;5033633;28;20880;-72
2022/07/28 02:52:46;;;;;;;8.00;1.63;;;;;;;;;;5033625;28;20402;-72
2022/07/28 02:55:14;;;;;;;5.03;2.33;;;;;;;;;;5033788;28;20406;-72
2022/07/28 02:57:41;;;;;;;2.27;2.07;;;;;;;;;;5033562;28;20489;-73
2022/07/28 03:00:07;;;;;;;1.50;1.47;;;;;;;;;;5033388;28;20571;-72
2022/07/28 03:02:35;;;;;;;4.40;1.70;;;;;;;;;;5033464;28;20410;-72
2022/07/28 03:05:02;;;;;;;1.63;1.53;;;;;;;;;;5015727;28;20433;-72
2022/07/28 03:07:32;;;;;;;2.40;1.50;;;;;;;;;;5033356;28;20454;-72
2022/07/28 03:09:58;;;;;;;3.87;1.83;;;;;;;;;;5033677;28;20410;-73
2022/07/28 03:12:25;;;;;;;3.33;1.80;;;;;;;;;;5033402;28;20468;-72
2022/07/28 03:14:51;;;;;;;4.10;1.93;;;;;;;;;;5033396;28;20438;-72
2022/07/28 03:17:18;;;;;;;2.20;1.40;;;;;;;;;;5033240;28;20788;-72
2022/07/28 03:19:44;;;;;;;3.10;1.70;;;;;;;;;;5033113;28;20516;-73
2022/07/28 03:22:10;;;;;;;3.40;1.60;;;;;;;;;;5033392;28;20414;-72
2022/07/28 03:24:38;;;;;;;5.60;1.87;;;;;;;;;;5015512;28;20908;-73
2022/07/28 03:27:10;;;;;;;1.50;1.37;;;;;;;;;;5033203;28;20410;-72
2022/07/28 03:29:37;;;;;;;3.13;1.43;;;;;;;;;;5033202;28;20410;-71
2022/07/28 03:32:03;;;;;;;2.57;1.70;;;;;;;;;;5033193;28;20408;-72
2022/07/28 03:34:29;;;;;;;7.13;1.60;;;;;;;;;;5033132;28;20767;-72
2022/07/28 03:37:00;;;;;;;6.17;1.63;;;;;;;;;;5033153;28;20892;-73
2022/07/28 03:39:27;;;;;;;4.47;1.73;;;;;;;;;;5033136;28;20475;-72
2022/07/28 03:41:54;;;;;;;2.60;2.00;;;;;;;;;;5033056;28;20480;-72
2022/07/28 03:44:21;;;;;;;1.90;1.70;;;;;;;;;;5033219;28;20512;-72
2022/07/28 03:46:47;;;;;;;1.90;1.80;;;;;;;;;;5033057;28;20500;-72
2022/07/28 03:49:13;;;;;;;3.17;1.60;;;;;;;;;;5032947;28;20852;-73
2022/07/28 03:51:39;;;;;;;8.70;1.73;;;;;;;;;;5033041;28;20405;-72
2022/07/28 03:54:05;;;;;;;1.80;1.60;;;;;;;;;;5032988;28;20412;-72
2022/07/28 03:56:31;;;;;;;6.23;1.80;;;;;;;;;;5032986;28;20411;-73
2022/07/28 03:58:57;;;;;;;2.00;1.83;;;;;;;;;;5032977;28;20492;-73
2022/07/28 04:01:23;;;;;;;3.20;1.83;;;;;;;;;;5032826;28;20567;-72
2022/07/28 04:03:49;;;;;;;11.83;10.70;;;;;;;;;;5032867;28;20412;-72
2022/07/28 04:06:15;;;;;;;1.87;1.50;;;;;;;;;;5032899;28;20407;-73
2022/07/28 04:08:41;;;;;;;2.27;2.23;;;;;;;;;;5032835;28;20464;-73
2022/07/28 04:11:07;;;;;;;1.70;1.70;;;;;;;;;;5033098;28;20409;-73
2022/07/28 04:13:35;;;;;;;11.80;2.33;;;;;;;;;;5032670;28;20419;-73
2022/07/28 04:16:01;;;;;;;46.40;11.13;;;;;;;;;;5032835;28;20766;-72
2022/07/28 04:18:27;;;;;;;9.60;2.90;;;;;;;;;;5016772;28;20871;-72
2022/07/28 04:20:54;;;;;;;7.43;2.07;;;;;;;;;;5036348;28;20476;-73
2022/07/28 04:23:21;;;;;;;3.90;2.10;;;;;;;;;;5018590;28;20779;-73
2022/07/28 04:25:47;;;;;;;51.20;10.43;;;;;;;;;;5036424;28;20487;-72
2022/07/28 04:28:13;;;;;;;4.37;2.20;;;;;;;;;;5036123;28;20487;-73
2022/07/28 04:30:39;;;;;;;3.43;1.80;;;;;;;;;;5036140;28;20445;-73
2022/07/28 04:33:05;;;;;;;5.60;1.80;;;;;;;;;;5018389;28;20926;-74
2022/07/28 04:35:33;;;;;;;2.00;2.00;;;;;;;;;;5036087;28;20414;-72
2022/07/28 04:37:59;;;;;;;1.87;1.73;;;;;;;;;;5036182;28;20413;-72
2022/07/28 04:40:26;;;;;;;4.83;1.50;;;;;;;;;;5036017;28;20522;-74
2022/07/28 04:42:52;;;;;;;7.50;1.97;;;;;;;;;;5036054;28;20574;-73
2022/07/28 04:45:18;;;;;;;2.43;1.73;;;;;;;;;;5035847;28;20977;-73
2022/07/28 04:47:44;;;;;;;5.40;1.63;;;;;;;;;;5035820;28;20495;-73
2022/07/28 04:50:11;;;;;;;6.77;1.70;;;;;;;;;;5035879;28;20520;-71
2022/07/28 04:52:38;;;;;;;1.70;1.60;;;;;;;;;;5035883;28;20738;-72
2022/07/28 04:55:05;;;;;;;1.90;1.80;;;;;;;;;;5035810;28;20399;-71
2022/07/28 04:57:31;;;;;;;2.70;1.90;;;;;;;;;;5035713;28;20820;-72
2022/07/28 04:59:59;;;;;;;1.60;1.50;;;;;;;;;;5035815;28;20515;-71
2022/07/28 05:02:25;;;;;;;4.47;1.87;;;;;;;;;;5035506;28;20462;-71
2022/07/28 05:04:51;;;;;;;3.13;2.07;;;;;;;;;;5017661;28;20807;-71
2022/07/28 05:07:17;;;;;;;8.90;1.90;;;;;;;;;;5035506;28;20775;-70
2022/07/28 05:09:43;;;;;;;3.13;1.90;;;;;;;;;;5017683;28;20780;-71
2022/07/28 05:12:09;;;;;;;7.10;1.97;;;;;;;;;;5035405;28;20502;-72
2022/07/28 05:14:35;;;;;;;3.33;1.83;;;;;;;;;;5035357;28;20424;-72
2022/07/28 05:17:02;;;;;;;2.27;1.90;;;;;;;;;;5035314;28;20501;-71
2022/07/28 05:19:27;;;;;;;2.73;2.07;;;;;;;;;;5017280;28;20476;-71
2022/07/28 05:21:53;;;;;;;2.83;2.17;;;;;;;;;;5035129;28;20512;-71
2022/07/28 05:24:19;;;;;;;8.97;1.90;;;;;;;;;;5035153;28;20467;-72
2022/07/28 05:26:45;;;;;;;6.50;2.03;;;;;;;;;;5017339;28;20428;-71
2022/07/28 05:29:11;;;;;;;5.00;2.00;;;;;;;;;;5033897;28;20422;-70
2022/07/28 05:31:38;;;;;;;1.90;1.80;;;;;;;;;;5034996;28;20412;-71
2022/07/28 05:34:04;;;;;;;6.10;2.30;;;;;;;;;;5034915;28;20418;-70
2022/07/28 05:36:30;;;;;;;2.03;1.90;;;;;;;;;;5035158;28;20418;-66
2022/07/28 05:38:56;;;;;;;3.07;2.10;;;;;;;;;;5034903;28;20779;-67
2022/07/28 05:41:22;;;;;;;3.53;2.00;;;;;;;;;;5017037;28;20475;-67
2022/07/28 05:43:48;;;;;;;2.23;2.13;;;;;;;;;;5033824;28;20576;-67
2022/07/28 05:46:14;;;;;;;2.83;2.37;;;;;;;;;;5034100;28;20483;-67
2022/07/28 05:48:40;;;;;;;2.87;2.10;;;;;;;;;;5032793;28;20433;-65
2022/07/28 05:51:06;;;;;;;2.47;2.27;;;;;;;;;;5032192;28;21195;-66
2022/07/28 05:53:32;;;;;;;2.83;2.10;;;;;;;;;;5016713;28;20526;-65
2022/07/28 05:55:58;;;;;;;3.27;2.00;;;;;;;;;;5033635;28;20471;-65
2022/07/28 05:58:24;;;;;;;2.13;2.03;;;;;;;;;;5031841;28;20453;-66
2022/07/28 06:00:50;;;;;;;2.97;1.63;;;;;;;;;;5013463;28;20963;-66
2022/07/28 06:03:16;;;;;;;2.77;2.10;;;;;;;;;;5029473;28;20504;-65
2022/07/28 06:05:42;;;;;;;4.20;2.20;;;;;;;;;;5029166;28;20490;-65
2022/07/28 06:08:09;;;;;;;7.80;2.10;;;;;;;;;;5032556;28;20469;-67
2022/07/28 06:13:20;;;;;;;1.70;1.60;;;;;;;;;;5027475;28;20439;-66
2022/07/28 06:15:46;;;;;;;2.13;2.00;;;;;;;;;;5019496;28;20923;-66
2022/07/28 06:18:12;;;;;;;2.67;1.47;;;;;;;;;;5033472;28;20421;-66
2022/07/28 06:20:38;;;;;;;3.13;1.70;;;;;;;;;;5032092;28;20484;-65
2022/07/28 06:23:04;;;;;;;2.00;1.90;;;;;;;;;;5023527;28;20421;-65
2022/07/28 06:25:30;;;;;;;3.73;2.10;;;;;;;;;;5032454;28;20518;-65
2022/07/28 06:27:58;;;;;;;2.57;1.90;;;;;;;;;;5033000;28;20927;-66
2022/07/28 06:30:24;;;;;;;6.00;1.90;;;;;;;;;;5033398;28;20449;-67
2022/07/28 06:32:50;;;;;;;10.33;2.43;;;;;;;;;;5033105;28;20441;-65
2022/07/28 06:35:17;;;;;;;3.07;1.97;;;;;;;;;;5031898;28;20804;-66
2022/07/28 06:37:43;;;;;;;5.37;2.10;;;;;;;;;;5015301;28;20421;-66
2022/07/28 06:40:10;;;;;;;8.20;2.27;;;;;;;;;;5026399;28;20566;-67
2022/07/28 06:42:37;;;;;;;7.50;1.90;;;;;;;;;;5019161;28;20475;-69
2022/07/28 06:45:03;;;;;;;1.80;1.70;;;;;;;;;;5030742;28;20959;-66
2022/07/28 06:47:29;;;;;;;1.90;1.80;;;;;;;;;;5013783;28;20785;-67
2022/07/28 06:49:55;;;;;;;6.83;2.13;;;;;;;;;;5004689;28;20435;-68
2022/07/28 06:52:21;;;;;;;4.43;2.57;;;;;;;;;;5033633;28;20425;-67
2022/07/28 06:54:50;;;;;;;1.70;1.70;;;;;;;;;;5031756;28;20917;-68
2022/07/28 06:57:16;;;;;;;3.37;1.90;;;;;;;;;;5031779;28;20538;-68
2022/07/28 06:59:42;;;;;;;2.80;1.83;;;;;;;;;;5030943;28;20473;-68
2022/07/28 07:02:08;;;;;;;3.30;2.27;;;;;;;;;;5030620;28;20450;-69
2022/07/28 07:04:34;;;;;;;1.77;1.60;;;;;;;;;;5029088;28;20435;-68
2022/07/28 07:07:00;;;;;;;2.37;2.27;;;;;;;;;;5030019;28;20913;-68
2022/07/28 07:09:26;;;;;;;5.43;2.10;;;;;;;;;;5029052;28;20435;-68
2022/07/28 07:11:52;;;;;;;7.27;2.37;;;;;;;;;;5030059;28;20443;-67
2022/07/28 07:14:18;;;;;;;4.50;1.60;;;;;;;;;;5027087;28;20439;-68
2022/07/28 07:16:44;;;;;;;2.53;1.87;;;;;;;;;;5028852;28;20482;-68
2022/07/28 07:19:10;;;;;;;1.73;1.67;;;;;;;;;;5029459;28;20472;-67
2022/07/28 07:21:36;;;;;;;3.00;1.70;;;;;;;;;;5029397;28;20818;-69
2022/07/28 07:24:02;;;;;;;4.27;1.60;;;;;;;;;;5031542;28;20579;-70
2022/07/28 07:26:28;;;;;;;4.77;1.90;;;;;;;;;;5031334;28;20523;-70
2022/07/28 07:28:54;;;;;;;3.20;1.80;;;;;;;;;;5032498;28;20444;-68
2022/07/28 07:31:20;;;;;;;2.97;1.50;;;;;;;;;;5030651;28;20594;-70
2022/07/28 07:33:46;;;;;;;5.97;2.20;;;;;;;;;;5033118;28;20410;-74
2022/07/28 07:36:12;;;;;;;6.60;1.60;;;;;;;;;;5031609;28;20441;-74
2022/07/28 07:38:38;;;;;;;1.60;1.57;;;;;;;;;;5032346;28;20995;-73
2022/07/28 07:41:04;;;;;;;1.87;1.70;;;;;;;;;;5013663;28;20473;-75
2022/07/28 07:43:30;;;;;;;3.80;2.17;;;;;;;;;;5032440;28;20408;-74
2022/07/28 07:45:56;;;;;;;4.13;2.00;;;;;;;;;;5031313;28;20812;-73
2022/07/28 07:48:22;;;;;;;3.63;1.90;;;;;;;;;;5030930;28;20445;-74
2022/07/28 07:50:48;;;;;;;3.90;2.20;;;;;;;;;;5031971;28;20444;-74
2022/07/28 07:53:14;;;;;;;9.67;2.23;;;;;;;;;;5032924;28;20433;-73
2022/07/28 07:55:40;;;;;;;2.17;2.00;;;;;;;;;;5019030;28;20949;-74
2022/07/28 07:58:06;;;;;;;1.87;1.70;;;;;;;;;;5021355;28;20401;-74
2022/07/28 08:00:32;;;;;;;7.70;2.00;;;;;;;;;;5033939;28;20560;-75
2022/07/28 08:02:59;;;;;;;1.77;1.67;;;;;;;;;;5014978;28;20437;-75
2022/07/28 08:05:25;;;;;;;2.03;1.80;;;;;;;;;;5033231;28;20430;-75
2022/07/28 08:07:51;;;;;;;1.53;1.43;;;;;;;;;;5033551;28;20433;-74
2022/07/28 08:10:17;;;;;;;2.70;1.70;;;;;;;;;;5031595;28;20437;-72
2022/07/28 08:12:43;;;;;;;2.20;2.00;;;;;;;;;;5033351;28;20431;-74
2022/07/28 08:15:10;;;;;;;2.23;2.10;;;;;;;;;;5033371;28;20442;-73
2022/07/28 08:17:36;;;;;;;3.23;1.80;;;;;;;;;;5032043;28;20435;-73
2022/07/28 08:20:03;;;;;;;4.83;2.27;;;;;;;;;;5034714;28;20486;-75
2022/07/28 08:22:29;;;;;;;1.53;1.43;;;;;;;;;;5035393;28;20483;-75
2022/07/28 08:24:55;;;;;;;2.33;1.90;;;;;;;;;;5035684;28;20928;-75
2022/07/28 08:27:21;;;;;;;1.90;1.80;;;;;;;;;;5018917;28;20515;-75
2022/07/28 08:29:47;;;;;;;6.13;1.70;;;;;;;;;;5034712;28;20458;-74
2022/07/28 08:32:13;;;;;;;2.30;2.10;;;;;;;;;;5034449;28;20954;-75
2022/07/28 08:34:39;;;;;;;6.40;2.03;;;;;;;;;;5035177;28;20446;-75
2022/07/28 08:37:05;;;;;;;2.20;2.00;;;;;;;;;;5035331;28;20522;-75
2022/07/28 08:39:32;;;;;;;4.83;1.77;;;;;;;;;;5035399;28;20431;-75
2022/07/28 08:42:24;;;;;;;7.70;2.33;;;;;;;;;;5035783;28;20943;-76
2022/07/28 08:45:03;;;;;;;1.90;1.80;;;;;;;;;;4997008;28;20917;-75
2022/07/28 08:47:33;;;;;;;5.33;2.67;;;;;;;;;;5033661;28;20434;-75
2022/07/28 08:50:00;;;;;;;2.70;2.47;;;;;;;;;;5034469;28;20441;-75
2022/07/28 08:52:29;;;;;;;2.63;2.43;;;;;;;;;;5032846;28;20805;-75
2022/07/28 08:54:56;;;;;;;11.40;2.07;;;;;;;;;;5034270;28;21531;-75
2022/07/28 08:57:27;;;;;;;2.63;2.43;;;;;;;;;;5035021;28;20516;-75
2022/07/28 08:59:53;;;;;;;2.50;2.30;;;;;;;;;;5034263;28;20842;-72
2022/07/28 09:02:19;;;;;;;3.43;2.73;;;;;;;;;;5033634;28;20469;-74
2022/07/28 09:04:45;;;;;;;4.93;2.60;;;;;;;;;;5034321;28;20451;-74
2022/07/28 09:07:12;;;;;;;5.90;2.33;;;;;;;;;;5034531;28;20942;-75
2022/07/28 09:09:39;;;;;;;3.37;2.37;;;;;;;;;;5034034;28;20436;-75
2022/07/28 09:12:05;;;;;;;3.50;2.20;;;;;;;;;;5035407;28;20408;-75
2022/07/28 09:14:31;;;;;;;2.87;2.57;;;;;;;;;;5033756;28;20448;-75
2022/07/28 09:17:01;;;;;;;2.33;2.23;;;;;;;;;;5034616;28;20431;-74
2022/07/28 09:19:27;;;;;;;2.47;2.30;;;;;;;;;;5033354;28;20509;-74
2022/07/28 09:21:54;;;;;;;8.47;2.43;;;;;;;;;;5034089;28;20449;-74
2022/07/28 09:24:38;;;;;;;7.33;2.70;;;;;;;;;;5016592;28;20470;-74
2022/07/28 09:27:08;;;;;;;1.90;1.80;;;;;;;;;;5031580;28;20924;-76
2022/07/28 09:29:35;;;;;;;3.03;2.53;;;;;;;;;;5033653;28;20505;-73
2022/07/28 09:32:02;;;;;;;2.80;2.60;;;;;;;;;;5034263;28;20435;-76
2022/07/28 09:34:29;;;;;;;5.03;2.97;;;;;;;;;;5033286;28;20432;-78
2022/07/28 09:36:55;;;;;;;4.23;2.50;;;;;;;;;;5033219;28;20531;-77
2022/07/28 09:39:31;;;;;;;2.73;2.57;;;;;;;;;;5034836;28;20490;-76
2022/07/28 09:41:57;;;;;;;2.57;1.90;;;;;;;;;;5029746;28;20855;-75
2022/07/28 09:44:24;;;;;;;7.57;2.13;;;;;;;;;;5033825;28;20492;-76
2022/07/28 09:46:50;;;;;;;2.40;2.30;;;;;;;;;;5033158;28;20439;-75
2022/07/28 09:49:16;;;;;;;2.83;2.63;;;;;;;;;;5018700;28;20434;-76
2022/07/28 09:51:42;;;;;;;2.53;2.33;;;;;;;;;;5032858;28;20437;-76
2022/07/28 09:54:09;;;;;;;2.00;1.90;;;;;;;;;;5030210;28;20487;-76
2022/07/28 09:56:36;;;;;;;3.37;2.67;;;;;;;;;;5034494;28;20409;-75
2022/07/28 09:59:03;;;;;;;2.30;1.93;;;;;;;;;;5015859;28;20500;-72
2022/07/28 10:01:29;;;;;;;2.80;2.20;;;;;;;;;;5032428;28;20483;-76
2022/07/28 10:03:56;;;;;;;2.83;2.17;;;;;;;;;;5033566;28;20811;-73
2022/07/28 10:06:30;;;;;;;4.47;2.67;;;;;;;;;;5031663;28;21104;-72
2022/07/28 10:08:57;;;;;;;3.70;2.40;;;;;;;;;;5031031;28;20787;-72
2022/07/28 10:11:26;;;;;;;3.07;2.60;;;;;;;;;;5033720;28;20449;-72
2022/07/28 10:13:52;;;;;;;3.23;2.50;;;;;;;;;;5033071;28;20458;-72
2022/07/28 10:16:19;;;;;;;2.47;2.40;;;;;;;;;;5032868;28;20446;-72
2022/07/28 10:18:46;;;;;;;2.63;2.40;;;;;;;;;;5033243;28;20960;-72
2022/07/28 10:21:14;;;;;;;3.90;2.67;;;;;;;;;;5030612;28;21070;-73
2022/07/28 10:23:41;;;;;;;3.90;2.77;;;;;;;;;;5029604;28;20438;-76
2022/07/28 10:26:10;;;;;;;2.53;2.43;;;;;;;;;;5003710;28;20427;-73
2022/07/28 10:28:38;;;;;;;5.30;2.83;;;;;;;;;;5014345;28;20475;-73
2022/07/28 10:31:04;;;;;;;2.80;2.60;;;;;;;;;;5016210;28;20864;-75
2022/07/28 10:33:31;;;;;;;2.70;2.60;;;;;;;;;;5033959;28;20494;-73
2022/07/28 10:35:57;;;;;;;3.47;2.60;;;;;;;;;;5033922;28;20416;-75
2022/07/28 10:38:28;;;;;;;3.73;2.50;;;;;;;;;;5033829;28;20418;-74
2022/07/28 10:40:55;;;;;;;2.70;2.50;;;;;;;;;;5033666;28;20521;-74
2022/07/28 10:43:23;;;;;;;2.90;2.80;;;;;;;;;;5033695;28;20488;-74
2022/07/28 10:45:49;;;;;;;2.73;2.43;;;;;;;;;;5033649;28;20418;-73
2022/07/28 10:48:15;;;;;;;4.97;2.70;;;;;;;;;;5033772;28;20895;-74
2022/07/28 10:50:42;;;;;;;2.87;2.43;;;;;;;;;;5033690;28;20906;-73
2022/07/28 10:53:10;;;;;;;6.07;2.30;;;;;;;;;;5033613;28;20404;-73
2022/07/28 10:55:46;;;;;;;4.70;2.77;;;;;;;;;;5033559;28;20422;-74
2022/07/28 10:58:30;;;;;;;3.13;2.73;;;;;;;;;;5033877;28;20411;-73
2022/07/28 11:00:56;;;;;;;2.67;2.47;;;;;;;;;;5033412;28;20470;-73
2022/07/28 11:03:35;;;;;;;7.60;3.03;;;;;;;;;;5033508;28;20454;-73
2022/07/28 11:06:34;;;;;;;2.63;2.53;;;;;;;;;;5033494;28;20416;-73
2022/07/28 11:09:20;;;;;;;2.53;2.53;;;;;;;;;;4990576;28;20415;-72
2022/07/28 11:11:49;;;;;;;4.53;2.93;;;;;;;;;;5033363;28;20494;-72
2022/07/28 11:14:33;;;;;;;3.27;2.73;;;;;;;;;;5033357;28;20489;-72
2022/07/28 11:16:59;;;;;;;3.17;2.87;;;;;;;;;;5033398;28;20437;-72
2022/07/28 11:19:26;;;;;;;4.40;2.67;;;;;;;;;;5034024;28;20463;-72
2022/07/28 11:22:11;;;;;;;2.60;2.40;;;;;;;;;;5033511;28;20474;-73
2022/07/28 11:24:55;;;;;;;2.57;2.37;;;;;;;;;;5033491;28;20424;-74
2022/07/28 11:27:40;;;;;;;3.07;2.73;;;;;;;;;;5015960;28;20454;-73
2022/07/28 11:30:12;;;;;;;4.30;2.90;;;;;;;;;;5037368;28;20465;-73
2022/07/28 11:32:53;;;;;;;4.80;2.80;;;;;;;;;;5037301;28;20416;-74
2022/07/28 11:35:20;;;;;;;2.70;2.60;;;;;;;;;;5037186;28;20403;-73
2022/07/28 11:38:09;;;;;;;2.70;2.70;;;;;;;;;;5037136;28;20469;-73
2022/07/28 11:40:45;;;;;;;4.13;3.00;;;;;;;;;;5026762;28;20839;-74
2022/07/28 11:43:24;;;;;;;5.13;3.00;;;;;;;;;;5037088;28;20400;-73
2022/07/28 11:46:01;;;;;;;2.53;2.33;;;;;;;;;;5037109;28;20415;-74
2022/07/28 11:48:29;;;;;;;3.77;2.67;;;;;;;;;;5037222;28;20403;-73
2022/07/28 11:51:04;;;;;;;3.37;3.07;;;;;;;;;;5019348;28;20419;-72
2022/07/28 11:53:37;;;;;;;2.80;2.60;;;;;;;;;;5036892;28;20410;-73
2022/07/28 11:56:04;;;;;;;3.07;2.70;;;;;;;;;;5036860;28;20846;-72
2022/07/28 11:58:29;;;;;;;2.50;2.30;;;;;;;;;;5036732;28;20410;-73
2022/07/28 12:01:15;;;;;;;3.10;2.90;;;;;;;;;;5036699;28;20566;-73
2022/07/28 12:03:41;;;;;;;3.63;3.33;;;;;;;;;;5036659;28;20994;-73
2022/07/28 12:06:07;;;;;;;3.03;2.83;;;;;;;;;;5036675;28;20408;-72
2022/07/28 12:09:03;;;;;;;6.50;3.40;;;;;;;;;;5036401;28;20403;-72
2022/07/28 12:11:33;;;;;;;10.20;2.97;;;;;;;;;;5019958;28;20582;-72
2022/07/28 12:14:00;;;;;;;2.53;2.43;;;;;;;;;;5036465;28;20411;-72
2022/07/28 12:16:27;;;;;;;2.70;2.60;;;;;;;;;;5036493;28;20499;-72
2022/07/28 12:18:53;;;;;;;2.60;2.57;;;;;;;;;;5036201;28;20459;-72
2022/07/28 12:21:35;;;;;;;2.63;2.53;;;;;;;;;;5018630;28;20479;-74
2022/07/28 12:24:01;;;;;;;2.87;2.67;;;;;;;;;;5036310;28;20432;-72
2022/07/28 12:26:30;;;;;;;4.00;2.70;;;;;;;;;;5036231;28;20976;-73
2022/07/28 12:28:57;;;;;;;3.27;3.07;;;;;;;;;;5018477;28;20415;-73
2022/07/28 12:31:29;;;;;;;3.03;2.37;;;;;;;;;;5036208;28;20431;-72
2022/07/28 12:33:55;;;;;;;2.50;2.30;;;;;;;;;;5036087;28;20408;-72
2022/07/28 12:36:25;;;;;;;2.43;2.33;;;;;;;;;;5036082;28;20523;-73
2022/07/28 12:38:51;;;;;;;2.90;2.70;;;;;;;;;;5035441;28;20443;-73
2022/07/28 12:41:17;;;;;;;3.53;2.60;;;;;;;;;;5035918;28;20467;-72
2022/07/28 12:43:50;;;;;;;6.37;2.60;;;;;;;;;;5018230;28;20521;-73
2022/07/28 12:46:21;;;;;;;5.57;2.63;;;;;;;;;;5035786;28;20840;-73
2022/07/28 12:48:48;;;;;;;4.77;2.80;;;;;;;;;;5035820;28;20764;-72
2022/07/28 12:51:33;;;;;;;4.20;3.30;;;;;;;;;;5035772;28;20491;-73
2022/07/28 12:53:59;;;;;;;3.20;3.00;;;;;;;;;;5035701;28;20910;-72
2022/07/28 12:56:25;;;;;;;2.80;2.53;;;;;;;;;;5035656;28;20400;-74
2022/07/28 12:59:09;;;;;;;4.07;2.73;;;;;;;;;;5035534;28;20409;-73
2022/07/28 13:01:45;;;;;;;2.70;2.60;;;;;;;;;;5017765;28;20506;-72
2022/07/28 13:04:11;;;;;;;4.03;2.73;;;;;;;;;;5035626;28;20414;-73
2022/07/28 13:06:37;;;;;;;3.03;2.83;;;;;;;;;;5035623;28;20402;-73
2022/07/28 13:09:03;;;;;;;10.03;2.50;;;;;;;;;;5035599;28;20499;-73
2022/07/28 13:11:30;;;;;;;3.00;2.70;;;;;;;;;;5035297;28;20483;-72
2022/07/28 13:13:56;;;;;;;2.60;2.50;;;;;;;;;;5035337;28;20404;-73
2022/07/28 13:16:23;;;;;;;2.70;2.50;;;;;;;;;;5035355;28;20408;-72
2022/07/28 13:18:52;;;;;;;3.00;2.30;;;;;;;;;;5035205;28;20555;-73
2022/07/28 13:21:40;;;;;;;2.57;2.47;;;;;;;;;;5035219;28;20479;-73
2022/07/28 13:24:08;;;;;;;3.03;2.80;;;;;;;;;;5035226;28;20402;-73
2022/07/28 13:26:35;;;;;;;4.23;2.30;;;;;;;;;;5035153;28;20496;-73
2022/07/28 13:29:01;;;;;;;6.80;2.60;;;;;;;;;;5034994;28;20437;-73
2022/07/28 13:31:27;;;;;;;3.60;2.50;;;;;;;;;;5035185;28;20404;-73
2022/07/28 13:33:53;;;;;;;8.53;3.30;;;;;;;;;;5035076;28;20462;-72
2022/07/28 13:36:19;;;;;;;4.93;2.70;;;;;;;;;;5034954;28;20767;-72
2022/07/28 13:38:45;;;;;;;5.57;2.77;;;;;;;;;;5017225;28;20515;-72
2022/07/28 13:41:11;;;;;;;4.77;3.40;;;;;;;;;;5034763;28;20555;-72
2022/07/28 13:43:37;;;;;;;2.90;2.80;;;;;;;;;;5034867;28;20176;-73
2022/07/28 13:46:04;;;;;;;6.80;2.60;;;;;;;;;;5034745;28;20416;-72
2022/07/28 13:48:31;;;;;;;4.10;2.60;;;;;;;;;;5034776;28;20411;-72
2022/07/28 13:50:57;;;;;;;2.63;2.50;;;;;;;;;;5033863;28;20400;-74
2022/07/28 13:53:31;;;;;;;3.40;3.10;;;;;;;;;;5016842;28;20412;-72
2022/07/28 13:55:57;;;;;;;3.23;3.00;;;;;;;;;;5034551;28;20415;-74
2022/07/28 13:58:22;;;;;;;3.10;3.00;;;;;;;;;;5034582;28;20400;-72
2022/07/28 14:00:48;;;;;;;2.73;2.57;;;;;;;;;;5034408;28;20220;-71
2022/07/28 14:03:14;;;;;;;3.00;2.90;;;;;;;;;;5034498;28;20775;-71
2022/07/28 14:05:40;;;;;;;2.97;2.87;;;;;;;;;;5034387;28;20420;-71
2022/07/28 14:08:07;;;;;;;5.20;3.00;;;;;;;;;;5034387;28;20453;-73
2022/07/28 14:10:34;;;;;;;3.13;2.80;;;;;;;;;;5034558;28;20408;-74
2022/07/28 14:13:00;;;;;;;3.40;3.10;;;;;;;;;;5034129;28;20404;-73
2022/07/28 14:15:26;;;;;;;2.57;2.33;;;;;;;;;;5034191;28;20416;-72
2022/07/28 14:17:52;;;;;;;4.40;2.73;;;;;;;;;;5034241;28;20411;-74
2022/07/28 14:20:18;;;;;;;3.80;2.77;;;;;;;;;;5033944;28;20491;-72
2022/07/28 14:22:44;;;;;;;3.07;2.83;;;;;;;;;;5033875;28;20462;-72
2022/07/28 14:25:11;;;;;;;2.47;2.37;;;;;;;;;;5034127;28;20495;-74
2022/07/28 14:27:37;;;;;;;3.27;3.00;;;;;;;;;;5016324;28;20452;-73
2022/07/28 14:30:04;;;;;;;2.90;2.80;;;;;;;;;;5033959;28;20416;-72
2022/07/28 14:32:31;;;;;;;6.00;2.77;;;;;;;;;;5033969;28;20416;-73
2022/07/28 14:34:57;;;;;;;4.33;2.80;;;;;;;;;;5033890;28;20408;-72
2022/07/28 14:37:23;;;;;;;3.10;2.93;;;;;;;;;;5033927;28;20895;-73
2022/07/28 14:39:48;;;;;;;3.20;2.53;;;;;;;;;;5033824;28;20415;-72
2022/07/28 14:42:14;;;;;;;4.33;2.67;;;;;;;;;;5033744;28;20184;-73
2022/07/28 14:44:40;;;;;;;2.80;2.70;;;;;;;;;;5033545;28;20846;-74
2022/07/28 14:47:06;;;;;;;2.93;2.73;;;;;;;;;;5033751;28;20416;-74
2022/07/28 14:49:33;;;;;;;2.63;2.43;;;;;;;;;;5033693;28;20412;-72
2022/07/28 14:51:59;;;;;;;4.93;2.93;;;;;;;;;;5033678;28;20413;-72